createdAt,value
2018-12-24T00:03:38.232Z,97.00
2018-12-24T00:08:44.435Z,97.60
2018-12-24T00:13:50.501Z,96.70
2018-12-24T00:18:56.604Z,97.50
2018-12-24T00:24:02.815Z,97.20
2018-12-24T00:29:08.929Z,98.10
2018-12-24T00:34:15.225Z,97.60
2018-12-24T00:39:21.281Z,97.50
2018-12-24T00:44:27.419Z,97.50
2018-12-24T00:49:33.634Z,97.40
2018-12-24T00:54:39.832Z,97.70
2018-12-24T00:59:45.897Z,97.80
2018-12-24T01:04:52.176Z,97.00
2018-12-24T01:09:58.363Z,97.60
2018-12-24T01:15:04.595Z,97.60
2018-12-24T01:20:10.910Z,96.90
2018-12-24T01:25:17.045Z,97.40
2018-12-24T01:30:23.080Z,97.20
2018-12-24T01:35:29.148Z,97.70
2018-12-24T01:40:35.310Z,97.10
2018-12-24T01:45:41.481Z,98.00
2018-12-24T01:50:47.592Z,97.10
2018-12-24T01:55:53.695Z,97.40
2018-12-24T02:00:59.736Z,97.30
2018-12-24T02:06:05.873Z,97.50
2018-12-24T02:11:12.012Z,97.50
2018-12-24T02:16:18.029Z,97.90
2018-12-24T02:21:24.152Z,98.20
2018-12-24T02:26:30.296Z,97.30
2018-12-24T02:31:36.514Z,97.20
2018-12-24T02:36:42.648Z,97.10
2018-12-24T02:41:48.980Z,97.40
2018-12-24T02:46:55.216Z,97.40
2018-12-24T02:52:01.281Z,97.30
2018-12-24T02:57:07.247Z,98.10
2018-12-24T03:02:13.349Z,97.90
2018-12-24T03:07:19.525Z,96.70
2018-12-24T03:12:25.668Z,97.50
2018-12-24T03:17:31.762Z,97.10
2018-12-24T03:22:37.726Z,97.50
2018-12-24T03:27:43.905Z,97.20
2018-12-24T03:32:50.051Z,96.80
2018-12-24T03:37:56.163Z,97.50
2018-12-24T03:43:12.133Z,98.10
2018-12-24T03:48:09.962Z,97.90
2018-12-24T03:53:16.032Z,98.80
2018-12-24T03:58:22.124Z,98.60
2018-12-24T04:03:28.170Z,98.40
2018-12-24T04:08:34.333Z,98.80
2018-12-24T04:13:40.449Z,99.00
2018-12-24T04:18:46.522Z,98.70
2018-12-24T04:23:52.558Z,98.40
2018-12-24T04:28:58.722Z,96.70
2018-12-24T04:34:04.837Z,98.70
2018-12-24T04:39:10.902Z,98.30
2018-12-24T04:44:16.998Z,97.90
2018-12-24T04:49:23.226Z,98.20
2018-12-24T04:54:29.420Z,98.00
2018-12-24T04:59:35.479Z,98.80
2018-12-24T05:04:41.874Z,98.20
2018-12-24T05:09:48.033Z,97.90
2018-12-24T05:14:54.166Z,97.40
2018-12-24T05:20:00.220Z,97.10
2018-12-24T05:25:06.288Z,98.50
2018-12-24T05:30:12.452Z,97.60
2018-12-24T05:35:18.525Z,95.80
2018-12-24T05:40:24.617Z,97.20
2018-12-24T05:45:30.773Z,96.90
2018-12-24T05:50:36.948Z,96.80
2018-12-24T05:55:43.013Z,96.10
2018-12-24T06:00:49.227Z,97.20
2018-12-24T06:05:55.383Z,97.90
2018-12-24T06:11:01.484Z,96.80
2018-12-24T06:16:07.531Z,96.90
2018-12-24T06:21:13.642Z,96.50
2018-12-24T06:26:19.745Z,96.30
2018-12-24T06:31:25.863Z,96.10
2018-12-24T06:36:31.851Z,96.10
2018-12-24T06:41:37.933Z,95.70
2018-12-24T06:46:43.991Z,95.50
2018-12-24T06:51:50.158Z,95.90
2018-12-24T06:56:56.237Z,96.00
2018-12-24T07:02:02.237Z,96.50
2018-12-24T07:07:08.396Z,96.30
2018-12-24T07:12:14.548Z,95.70
2018-12-24T07:17:20.743Z,95.90
2018-12-24T07:22:26.922Z,95.90
2018-12-24T07:27:32.861Z,95.80
2018-12-24T07:32:39.070Z,95.30
2018-12-24T07:37:45.305Z,95.80
2018-12-24T07:42:51.705Z,94.90
2018-12-24T07:47:57.881Z,95.50
2018-12-24T07:53:04.029Z,94.40
2018-12-24T07:58:10.787Z,95.80
2018-12-24T08:03:16.987Z,94.90
2018-12-24T08:08:23.114Z,94.60
2018-12-24T08:13:29.197Z,94.30
2018-12-24T08:18:35.561Z,93.80
2018-12-24T08:23:41.669Z,94.20
2018-12-24T08:28:47.809Z,94.70
2018-12-24T08:33:54.005Z,95.00
2018-12-24T08:39:00.164Z,94.60
2018-12-24T08:44:06.420Z,94.40
2018-12-24T08:49:12.773Z,94.50
2018-12-24T08:54:39.530Z,95.00
2018-12-24T09:05:11.297Z,94.00
2018-12-24T09:10:17.813Z,94.00
2018-12-24T09:15:25.622Z,94.50
2018-12-24T09:20:31.774Z,94.50
2018-12-24T09:25:38.037Z,94.80
2018-12-24T09:30:50.569Z,95.20
2018-12-24T09:35:56.804Z,94.80
2018-12-24T09:41:02.971Z,95.30
2018-12-24T09:46:09.016Z,95.20
2018-12-24T09:51:15.017Z,95.50
2018-12-24T09:56:21.171Z,95.20
2018-12-24T10:01:27.334Z,94.90
2018-12-24T10:06:37.919Z,95.50
2018-12-24T10:11:44.024Z,94.20
2018-12-24T10:16:50.605Z,93.90
2018-12-24T10:21:56.623Z,94.70
2018-12-24T10:27:02.888Z,94.00
2018-12-24T10:32:09.017Z,94.20
2018-12-24T10:37:15.188Z,94.40
2018-12-24T10:42:21.578Z,94.90
2018-12-24T10:47:27.746Z,93.40
2018-12-24T10:52:33.830Z,93.60
2018-12-24T10:57:39.914Z,93.70
2018-12-24T11:02:46.064Z,92.60
2018-12-24T11:07:53.441Z,92.40
2018-12-24T11:12:59.683Z,92.40
2018-12-24T11:18:05.713Z,91.40
2018-12-24T11:23:12.058Z,91.50
2018-12-24T11:28:18.180Z,91.00
2018-12-24T11:33:24.909Z,90.80
2018-12-24T11:38:31.007Z,91.20
2018-12-24T11:43:38.693Z,91.10
2018-12-24T11:48:44.706Z,91.60
2018-12-24T11:53:52.852Z,91.40
2018-12-24T11:58:59.185Z,91.50
2018-12-24T12:04:05.434Z,91.70
2018-12-24T12:09:12.314Z,91.70
2018-12-24T12:14:18.806Z,92.10
2018-12-24T12:19:25.288Z,91.20
2018-12-24T12:24:31.366Z,91.70
2018-12-24T12:29:37.742Z,91.20
2018-12-24T12:34:43.896Z,90.30
2018-12-24T12:39:50.006Z,90.50
2018-12-24T12:44:56.047Z,91.60
2018-12-24T12:50:02.410Z,92.30
2018-12-24T12:55:08.773Z,92.40
2018-12-24T13:00:14.932Z,92.20
2018-12-24T13:05:21.153Z,91.90
2018-12-24T13:10:27.807Z,91.90
2018-12-24T13:15:33.965Z,92.30
2018-12-24T13:20:40.042Z,92.20
2018-12-24T13:25:46.180Z,91.80
2018-12-24T13:30:52.361Z,91.90
2018-12-24T13:35:58.559Z,91.30
2018-12-24T13:41:04.592Z,91.80
2018-12-24T13:46:12.449Z,90.90
2018-12-24T13:51:18.896Z,91.30
2018-12-24T13:56:24.989Z,91.30
2018-12-24T14:01:31.513Z,91.10
2018-12-24T14:06:37.971Z,91.30
2018-12-24T14:11:43.967Z,90.80
2018-12-24T14:16:50.120Z,91.50
2018-12-24T14:21:56.304Z,91.50
2018-12-24T14:27:13.881Z,91.80
2018-12-24T14:32:20.095Z,92.10
2018-12-24T14:37:26.245Z,91.80
2018-12-24T14:42:32.382Z,92.10
2018-12-24T14:47:38.440Z,92.00
2018-12-24T14:52:44.614Z,92.10
2018-12-24T14:57:50.685Z,91.60
2018-12-24T15:02:56.732Z,91.30
2018-12-24T15:08:02.700Z,90.60
2018-12-24T15:13:09.004Z,90.50
2018-12-24T15:18:15.253Z,89.30
2018-12-24T15:23:40.406Z,89.50
2018-12-24T15:28:46.581Z,89.30
2018-12-24T15:33:52.761Z,89.00
2018-12-24T15:38:59.039Z,86.60
2018-12-24T15:44:05.229Z,85.50
2018-12-24T15:49:11.260Z,86.50
2018-12-24T15:54:17.330Z,88.00
2018-12-24T15:59:23.614Z,88.30
2018-12-24T16:04:29.797Z,87.80
2018-12-24T16:09:36.452Z,86.80
2018-12-24T16:15:01.234Z,87.50
2018-12-24T16:20:07.503Z,86.80
2018-12-24T16:25:13.692Z,87.60
2018-12-24T16:30:19.963Z,87.70
2018-12-24T16:35:36.261Z,88.40
2018-12-24T16:40:44.945Z,88.70
2018-12-24T16:45:52.692Z,88.30
2018-12-24T16:50:58.966Z,87.80
2018-12-24T16:56:06.951Z,88.30
2018-12-24T17:01:14.683Z,88.20
2018-12-24T17:06:22.456Z,88.70
2018-12-24T17:11:39.462Z,86.80
2018-12-24T17:16:45.940Z,86.60
2018-12-24T17:21:52.182Z,88.00
2018-12-24T17:26:58.302Z,87.60
2018-12-24T17:32:04.488Z,88.30
2018-12-24T17:37:10.731Z,86.40
2018-12-24T17:42:16.928Z,85.30
2018-12-24T17:47:23.134Z,85.70
2018-12-24T17:52:29.267Z,85.40
2018-12-24T17:57:35.444Z,85.00
2018-12-24T18:02:41.520Z,86.20
2018-12-24T18:07:47.578Z,86.30
2018-12-24T18:12:53.760Z,87.50
2018-12-24T18:17:59.860Z,88.10
2018-12-24T18:23:05.913Z,89.30
2018-12-24T18:28:11.977Z,87.80
2018-12-24T18:33:18.180Z,88.90
2018-12-24T18:38:24.152Z,88.20
2018-12-24T18:43:30.248Z,87.70
2018-12-24T18:48:36.370Z,87.70
2018-12-24T18:53:42.565Z,87.90
2018-12-24T18:58:48.610Z,87.50
2018-12-24T19:03:55.173Z,88.40
2018-12-24T19:09:01.089Z,88.70
2018-12-24T19:14:09.009Z,89.60
2018-12-24T19:19:15.279Z,89.70
2018-12-24T19:24:21.442Z,89.20
2018-12-24T19:29:27.703Z,90.30
2018-12-24T19:34:33.964Z,90.30
2018-12-24T19:39:40.077Z,89.50
2018-12-24T19:44:46.281Z,90.30
2018-12-24T19:49:52.369Z,90.30
2018-12-24T19:54:58.513Z,89.60
2018-12-24T20:00:04.894Z,90.00
2018-12-24T20:05:12.095Z,89.30
2018-12-24T20:10:18.230Z,90.10
2018-12-24T20:15:24.162Z,89.40
2018-12-24T20:20:30.364Z,89.60
2018-12-24T20:25:36.497Z,89.80
2018-12-24T20:30:42.708Z,88.40
2018-12-24T20:35:48.802Z,88.80
2018-12-24T20:40:55.094Z,89.70
2018-12-24T20:46:01.294Z,89.30
2018-12-24T20:51:15.939Z,88.90
2018-12-24T20:56:15.209Z,89.30
2018-12-24T21:01:21.279Z,89.60
2018-12-24T21:06:27.370Z,90.20
2018-12-24T21:11:33.469Z,89.80
2018-12-24T21:16:39.704Z,89.00
2018-12-24T21:21:45.893Z,90.60
2018-12-24T21:26:51.873Z,89.60
2018-12-24T21:31:58.162Z,89.20
2018-12-24T21:37:04.429Z,89.70
2018-12-24T21:42:10.528Z,90.50
2018-12-24T21:47:16.698Z,90.90
2018-12-24T21:52:22.834Z,90.70
2018-12-24T21:57:29.226Z,90.80
2018-12-24T22:02:35.330Z,91.00
2018-12-24T22:07:42.500Z,90.80
2018-12-24T22:12:48.723Z,91.20
2018-12-24T22:17:54.843Z,91.20
2018-12-24T22:23:00.813Z,91.50
2018-12-24T22:28:06.910Z,91.40
2018-12-24T22:33:12.880Z,91.90
2018-12-24T22:38:18.952Z,91.70
2018-12-24T22:43:25.113Z,92.30
2018-12-24T22:48:31.288Z,92.90
2018-12-24T22:53:37.317Z,92.50
2018-12-24T22:58:43.466Z,92.80
2018-12-24T23:03:49.724Z,92.80
2018-12-24T23:08:55.791Z,93.80
2018-12-24T23:14:01.899Z,93.80
2018-12-24T23:19:07.957Z,93.50
2018-12-24T23:24:14.252Z,93.20
2018-12-24T23:29:20.291Z,93.20
2018-12-24T23:34:26.376Z,93.10
2018-12-24T23:39:32.649Z,93.20
2018-12-24T23:44:38.869Z,93.30
2018-12-24T23:49:44.947Z,93.10
2018-12-24T23:54:50.974Z,93.10
2018-12-24T23:59:57.268Z,92.70
